Airfield :
LOGIN :

Register | Disclaimer

   EN    FR    IT 

 










Legend :    VFR   Marginal VFR   IFR   Intensive IFR   Very Intensive IFR
Visi :
Ceiling :
>= 8 km
>= 3000ft
5 to 8 km
1000 to 3000 ft
1500m to 5 km
500 to 1000 ft
800 to 1500m
200 to 500 ft
< 800m
< 200 ft
Symbols :   Thunderstorms  Fog  Heavy snow  Heavy precipitations  Wind > 20 kt
SIGMETs :     Misc.  Thunderstorms  Icing  Turbulence  Mountain Waves  Volcanic Ashes






- Airport Elevation : 121 ft
- IATA code : HUY


EGNJ - Humberside

CURRENT METAR :
  • 101650Z 26005KT 9999 FEW023 SCT045 16/11 Q1019

EXPIRED METARs :
  • 101620Z 28005KT 220V320 9999 FEW023 SCT045 16/11 Q1019
  • 101550Z VRB02KT 9999 VCTS FEW025 SCT037CB 15/11 Q1019
  • 101520Z VRB03KT 9999 VCTS FEW011 SCT029CB SCT035 14/11 Q1019
  • 101450Z 34011KT 4000 -TSRA FEW011 SCT024CB BKN037 13/11 Q1018 RERA
  • 101420Z 05004KT 360V080 8000 -SHRA FEW011 SCT024CB BKN037 15/12 Q1017
  • 101350Z 29009KT 260V330 9999 VCSH SCT030 SCT038 18/09 Q1017

TAF TAF EGNJ
Valid from the 10 at 15:00 until the 11 at 00:00 UTC


101358Z 1015/1024 29008KT 9999 SCT030
TEMPO 1015/1020 6000 SHRA BKN012
PROB30
TEMPO 1015/1018 3000 +TSRA BKN008 BKN020CB
ATIS : +44 1652 682 020



MET'MAP, your aeronautical weather chart ! - Copyright ORBIFLY December 2007 - Disclaimer

ORBIFLY MET'MAP TEAM :

Programming & Development : Alexandra Zaïnal
Concept & original design : Baudouin d'Aumeries
Assistance for programming : Marc-Olivier Méhu
Technical & hardware support : Manuel Goepfert

Contact : metmap@orbifly.com




SOURCES & CREDITS :

   NOAA